Latest Coastal Weather Observations for Mornington Island Airport

IDQ60701

Issued at 2:12 pm EST Tuesday 28 March 2017 (issued every 10 minutes, with the page automatically refreshed every 10 minutes)

About coastal observations | Map of coastal stations | Coastal observations for QLD | Marine services | Other Formats
Station Details ID: 029182 Name: MORNINGTON ISLAND AIRPORT Lat: -16.66 Lon: 139.17 Height: 9.52 m
Data from the previous 72 hours. | See also: Recent months at Mornington Island Airport
Date/Time
EST
Temp
°C
Wind Pressure Rain since
9am
mm
Weather Cloud Vis
km
Sea
Height
m
Swell
Dir  Spd
kts
Gust
kts
hPa Trend Height
m
Period
s
Dir
28/02:00pm 32.9 NW 13 15 1004.6 - 0.0 - - - - - - -
28/01:30pm 32.8 NW 13 16 1005.1 - 0.0 - - - - - - -
28/01:00pm 32.9 NW 12 15 1005.6 - 0.0 - - - - - - -
28/12:30pm 32.9 WNW 13 16 1006.2 - 0.0 - - - - - - -
28/12:00pm 32.9 WNW 12 15 1006.7 - 0.0 - - - - - - -
28/11:30am 32.3 WNW 11 15 1007.4 - 0.0 - - - - - - -
28/11:00am 32.2 WNW 11 14 1007.6 - 0.0 - - - - - - -
28/10:30am 32.3 WNW 11 14 1008.0 - 0.0 - - - - - - -
28/10:00am 32.2 WNW 11 13 1008.1 - 0.0 - - - - - - -
28/09:30am 31.9 W 10 13 1008.0 - 0.0 - - - - - - -
28/09:00am 31.5 W 9 12 1007.9 - 0.0 - - - - - - -
28/08:30am 31.2 W 7 10 1007.6 - 0.0 - - - - - - -
28/08:00am 31.1 WNW 10 12 1007.3 - 0.0 - - - - - - -
28/07:30am 30.6 WNW 9 11 1006.9 - 0.0 - - - - - - -
28/07:00am 29.9 W 8 11 1006.8 - 0.0 - - - - - - -
28/06:30am 30.0 W 8 11 1006.6 - 0.0 - - - - - - -
28/06:00am 30.4 WNW 11 13 1006.5 - 0.0 - - - - - - -
28/05:30am 30.2 WNW 11 15 1006.3 - 0.0 - - - - - - -
28/05:00am 30.1 WNW 10 13 1006.2 - 0.0 - - - - - - -
28/04:30am 30.1 WNW 11 13 1006.1 - 0.0 - - - - - - -
28/04:00am 30.2 WNW 11 13 1005.9 - 0.0 - - - - - - -
28/03:30am 30.0 WNW 11 14 1006.0 - 0.0 - - - - - - -
28/03:00am 30.1 WNW 11 14 1006.2 - 0.0 - - - - - - -
28/02:30am 30.1 NW 11 13 1006.3 - 0.0 - - - - - - -
28/02:00am 30.2 NW 10 13 1006.5 - 0.0 - - - - - - -
28/01:30am 30.4 NW 12 15 1006.7 - 0.0 - - - - - - -
28/01:00am 30.4 NW 12 14 1006.7 - 0.0 - - - - - - -
28/12:30am 30.3 NW 11 13 1006.9 - 0.0 - - - - - - -
28/12:00am 30.4 NW 12 15 1007.0 - 0.0 - - - - - - -
 
Date/Time
EST
Temp
°C
Wind Pressure Rain since
9am
mm
Weather Cloud Vis
km
Sea
Height
m
Swell
Dir  Spd
kts
Gust
kts
hPa Trend Height
m
Period
s
Dir
27/11:30pm 30.3 NNW 11 13 1007.2 - 0.0 - - - - - - -
27/11:00pm 30.4 NNW 9 13 1007.2 - 0.0 - - - - - - -
27/10:30pm 30.2 NNW 9 12 1007.2 - 0.0 - - - - - - -
27/10:00pm 30.0 NNW 7 10 1007.2 - 0.0 - - - - - - -
27/09:30pm 30.0 N 7 9 1006.9 - 0.0 - - - - - - -
27/09:00pm 30.1 N 7 8 1006.6 - 0.0 - - - - - - -
27/08:30pm 30.1 N 6 8 1006.4 - 0.0 - - - - - - -
27/08:00pm 30.0 N 6 8 1006.1 - 0.0 - - - - - - -
27/07:30pm 29.8 N 5 6 1006.1 - 0.0 - - - - - - -
27/07:00pm 30.2 N 5 6 1005.8 - 0.0 - - - - - - -
27/06:30pm 31.1 N 7 10 1005.9 - 0.0 - - - - - - -
27/06:00pm 31.7 N 10 13 1005.7 - 0.0 - - - - - - -
27/05:30pm 32.3 NNW 10 13 1005.7 - 0.0 - - - - - - -
27/05:00pm 32.8 NNW 10 12 1005.6 - 0.0 - - - - - - -
27/04:30pm 32.5 NNW 11 13 1005.7 - 0.0 - - - - - - -
27/04:00pm 32.8 NNW 10 13 1005.7 - 0.0 - - - - - - -
27/03:30pm 32.9 NNW 10 12 1006.0 - 0.0 - - - - - - -
27/03:00pm 32.7 NNW 10 12 1006.3 - 0.0 - - - - - - -
27/02:30pm 32.7 NNW 10 11 1006.6 - 0.0 - - - - - - -
27/02:00pm 32.4 NW 9 10 1006.9 - 0.0 - - - - - - -
27/01:30pm 32.4 NW 7 9 1007.4 - 0.0 - - - - - - -
27/01:00pm 32.0 WNW 6 8 1008.0 - 0.0 - - - - - - -
27/12:30pm 31.9 WNW 6 7 1008.5 - 0.0 - - - - - - -
27/12:00pm 31.9 W 6 9 1009.0 - 0.0 - - - - - - -
27/11:30am 31.9 WSW 6 9 1009.4 - 0.0 - - - - - - -
27/11:00am 31.5 WSW 6 10 1010.0 - 0.0 - - - - - - -
27/10:30am 31.1 SW 7 9 1010.4 - 0.0 - - - - - - -
27/10:00am 31.1 SW 7 10 1010.5 - 0.0 - - - - - - -
27/09:30am 30.4 SW 8 11 1010.5 - 0.0 - - - - - - -
27/09:00am 30.1 SW 8 13 1010.1 - 0.0 - - - - - - -
27/08:30am 29.8 SW 9 13 1009.7 - 0.0 - - - - - - -
27/08:00am 29.7 WSW 8 12 1009.4 - 0.0 - - - - - - -
27/07:30am 29.5 WSW 7 11 1009.0 - 0.0 - - - - - - -
27/07:00am 29.7 W 8 10 1008.9 - 0.0 - - - - - - -
27/06:30am 29.5 W 9 12 1008.7 - 0.0 - - - - - - -
27/06:00am 29.5 W 8 10 1008.3 - 0.0 - - - - - - -
27/05:30am 29.3 WNW 8 10 1008.3 - 0.0 - - - - - - -
27/05:00am 29.2 WNW 8 11 1008.5 - 0.0 - - - - - - -
27/04:30am 29.3 NW 8 10 1008.4 - 0.0 - - - - - - -
27/04:00am 29.4 NW 9 11 1008.4 - 0.0 - - - - - - -
27/03:30am 29.6 NW 8 10 1008.6 - 0.0 - - - - - - -
27/03:00am 29.5 NW 9 11 1008.5 - 0.0 - - - - - - -
27/02:30am 29.6 NW 9 11 1008.7 - 0.0 - - - - - - -
27/02:00am 29.6 NW 8 12 1008.7 - 0.0 - - - - - - -
27/01:30am 29.6 NW 9 11 1008.8 - 0.0 - - - - - - -
27/01:00am 29.6 NW 8 10 1009.2 - 0.0 - - - - - - -
27/12:30am 29.6 NW 9 11 1009.4 - 0.0 - - - - - - -
27/12:00am 29.8 NW 10 11 1009.7 - 0.0 - - - - - - -
 
Date/Time
EST
Temp
°C
Wind Pressure Rain since
9am
mm
Weather Cloud Vis
km
Sea
Height
m
Swell
Dir  Spd
kts
Gust
kts
hPa Trend Height
m
Period
s
Dir
26/11:30pm 30.0 NW 10 12 1009.7 - 0.0 - - - - - - -
26/11:00pm 29.9 NNW 9 11 1009.7 - 0.0 - - - - - - -
26/10:30pm 29.7 NW 8 10 1009.6 - 0.0 - - - - - - -
26/10:00pm 29.4 NNW 6 7 1009.2 - 0.0 - - - - - - -
26/09:30pm 29.6 NNW 6 8 1009.1 - 0.0 - - - - - - -
26/09:00pm 29.4 NNW 5 7 1009.1 - 0.0 - - - - - - -
26/08:30pm 29.3 NNW 6 7 1008.6 - 0.0 - - - - - - -
26/08:00pm 29.1 N 5 6 1008.3 - 0.0 - - - - - - -
26/07:30pm 29.2 NNW 5 6 1008.1 - 0.0 - - - - - - -
26/07:00pm 29.5 N 4 5 1007.7 - 0.0 - - - - - - -
26/06:30pm 30.3 NNW 5 6 1007.5 - 0.0 - - - - - - -
26/06:00pm 30.9 NNW 6 8 1007.0 - 0.0 - - - - - - -
26/05:30pm 31.3 NW 7 9 1006.9 - 0.0 - - - - - - -
26/05:00pm 31.5 NW 7 9 1006.8 - 0.0 - - - - - - -
26/04:30pm 31.9 NW 8 10 1006.7 - 0.0 - - - - - - -
26/04:00pm 31.8 NW 10 13 1006.7 - 0.0 - - - - - - -
26/03:30pm 31.8 NW 8 11 1006.8 - 0.0 - - - - - - -
26/03:00pm 31.9 WNW 5 8 1007.2 - 0.0 - - - - - - -
26/02:30pm 31.2 NW 7 9 1007.6 - 0.0 - - - - - - -
26/02:00pm 31.2 NW 4 7 1008.1 - 0.0 - - - - - - -
26/01:30pm 28.7 NNW 7 9 1008.7 - 0.0 - - - - - - -
26/01:00pm 26.4 NNE 11 18 1009.2 - 0.0 - - - - - - -
26/12:30pm 31.1 WSW 5 7 1009.5 - 0.0 - - - - - - -
26/12:00pm 30.9 WNW 5 7 1009.7 - 0.0 - - - - - - -
26/11:30am 31.4 NW 8 10 1010.0 - 0.0 - - - - - - -
26/11:00am 31.1 WNW 6 7 1010.3 - 0.0 - - - - - - -
26/10:30am 31.5 WSW 5 7 1010.4 - 0.0 - - - - - - -
26/10:00am 31.3 WNW 5 7 1010.5 - 0.0 - - - - - - -
26/09:30am 31.1 NW 5 7 1010.5 - 0.0 - - - - - - -
26/09:00am 30.9 NNW 5 6 1010.2 - 13.6 - - - - - - -
26/08:30am 29.9 CALM 0 0 1009.9 - 13.6 - - - - - - -
26/08:00am 29.3 CALM 0 0 1009.6 - 13.6 - - - - - - -
26/07:30am 27.5 CALM 0 0 1009.3 - 13.6 - - - - - - -
26/07:00am 26.8 CALM 0 0 1008.9 - 13.6 - - - - - - -
26/06:30am 27.2 WNW 1 3 1008.6 - 13.6 - - - - - - -
26/06:00am 27.8 WNW 4 5 1007.9 - 13.6 - - - - - - -
26/05:30am 28.1 WNW 4 5 1007.8 - 13.6 - - - - - - -
26/05:00am 28.6 NW 5 7 1007.7 - 13.6 - - - - - - -
26/04:30am 28.5 NW 5 7 1007.6 - 13.6 - - - - - - -
26/04:00am 28.5 NW 5 6 1007.7 - 13.6 - - - - - - -
26/03:30am 28.6 NW 5 7 1008.0 - 13.6 - - - - - - -
26/03:00am 28.6 NW 7 8 1008.3 - 13.6 - - - - - - -
26/02:30am 28.1 NNW 4 5 1008.4 - 13.6 - - - - - - -
26/02:00am 27.5 NNW 5 5 1008.8 - 13.6 - - - - - - -
26/01:30am 26.7 N 3 5 1009.0 - 13.6 - - - - - - -
26/01:00am 26.7 N 3 4 1009.0 - 13.6 - - - - - - -
26/12:30am 26.6 N 3 4 1009.2 - 13.6 - - - - - - -
26/12:00am 26.7 N 2 3 1009.5 - 13.6 - - - - - - -
 
Date/Time
EST
Temp
°C
Wind Pressure Rain since
9am
mm
Weather Cloud Vis
km
Sea
Height
m
Swell
Dir  Spd
kts
Gust
kts
hPa Trend Height
m
Period
s
Dir
25/11:30pm 26.8 N 4 5 1009.6 - 13.6 - - - - - - -
25/11:00pm 26.8 NNE 4 5 1009.9 - 13.6 - - - - - - -
25/10:30pm 26.7 NNE 5 6 1009.7 - 13.6 - - - - - - -
25/10:00pm 26.8 NNE 3 4 1009.4 - 13.6 - - - - - - -
25/09:30pm 26.9 NNE 4 5 1009.1 - 13.6 - - - - - - -
25/09:00pm 27.1 NE 5 5 1008.5 - 13.6 - - - - - - -
25/08:30pm 27.3 NE 3 4 1008.0 - 13.6 - - - - - - -
25/08:00pm 27.6 NE 4 4 1007.5 - 13.6 - - - - - - -
25/07:30pm 27.9 ENE 4 4 1007.1 - 13.6 - - - - - - -
25/07:00pm 28.2 NE 4 5 1007.1 - 13.6 - - - - - - -
25/06:30pm 29.1 NNE 4 5 1007.2 - 13.6 - - - - - - -
25/06:00pm 29.4 N 3 4 1007.0 - 13.6 - - - - - - -
25/05:30pm 29.6 N 4 4 1006.8 - 13.6 - - - - - - -
25/05:00pm 29.8 NNW 4 5 1006.7 - 13.6 - - - - - - -
25/04:30pm 29.7 NW 3 5 1006.5 - 13.6 - - - - - - -
25/04:00pm 28.9 N 3 5 1006.8 - 13.6 - - - - - - -
25/03:30pm 28.4 CALM 0 0 1006.7 - 13.6 - - - - - - -
25/03:00pm 27.9 ENE 3 5 1007.0 - 13.6 - - - - - - -
25/02:30pm 26.7 NE 4 6 1007.1 - 13.6 - - - - - - -

Other Formats:

Comma delimited format used in spreadsheet applications
http://www.bom.gov.au/fwo/IDQ60701/IDQ60701.94254.axf

JavaScript Object Notation format (JSON) in row-major order
http://www.bom.gov.au/fwo/IDQ60701/IDQ60701.94254.json